^^
Station Historical Data
Daily Summary for January 1, 2018 Units:  English    Metric   Both
« Previous Day
Next Day »
Daily Weekly Monthly Yearly Custom
  High: Low: Average:
Temperature: TemperatureF °F 67.1 °F 77.9 °F
Dew Point: DewpointF °F 22.1 °F 31.5 °F
Humidity: Humidity% 16% 18%
Wind Speed: WindSpeedMPHmph -999.9mph -11mph
Wind Gust: WindSpeedGustMPHmph - -
Wind- -
Pressure: PressureIn in 30.05 in -
Precipitation: 0.00 in    
Historical Graphs
 
 
Tabular Data for January 1, 2018
Time Temperature Dew Point Pressure Wind Wind Speed Wind Gust Humidity Rainfall Rate (Hourly) solar Conditions
TemperatureF °F DewpointF °F PressureIn in Calm     Humidity% HourlyPrecipIn in SoftwareType W/m2 Conditions
09:00 67.5 °F 23.7 °F 30.08 in North -999.9 mph -999.0 mph 19% 0.00 in meteobridge W/m2
09:06 67.1 °F 22.1 °F 30.08 in Calm   19.0 mph 18% 0.00 in meteobridge W/m2
09:12 67.3 °F 23.5 °F 30.08 in North 14.1 mph 15.0 mph 19% 0.00 in meteobridge W/m2
09:18 67.5 °F 23.7 °F 30.09 in North 12.1 mph 22.0 mph 19% 0.00 in meteobridge W/m2
09:24 67.6 °F 23.9 °F 30.10 in NNE 6.0 mph 15.0 mph 19% 0.00 in meteobridge W/m2
09:30 67.8 °F 22.8 °F 30.10 in North 14.1 mph 18.0 mph 18% 0.00 in meteobridge W/m2
09:37 68.2 °F 24.3 °F 30.10 in North 17.0 mph 20.0 mph 19% 0.00 in meteobridge W/m2
09:43 68.5 °F 23.4 °F 30.11 in NNW 12.1 mph 17.0 mph 18% 0.00 in meteobridge W/m2
09:49 68.7 °F 23.5 °F 30.11 in WNW 4.0 mph 18.0 mph 18% 0.00 in meteobridge W/m2
09:55 69.6 °F 22.8 °F 30.11 in North 16.1 mph 19.0 mph 17% 0.00 in meteobridge W/m2
10:01 70.9 °F 25.3 °F 30.10 in NNE 6.0 mph 11.0 mph 18% 0.00 in meteobridge W/m2
10:07 71.8 °F 24.6 °F 30.10 in NNE 4.0 mph 17.0 mph 17% 0.00 in meteobridge W/m2
10:13 72.1 °F 25.0 °F 30.11 in NNE 16.1 mph 19.0 mph 17% 0.00 in meteobridge W/m2
10:20 72.1 °F 25.0 °F 30.11 in NNE 10.1 mph 10.1 mph 17% 0.00 in meteobridge W/m2
10:26 72.7 °F 25.3 °F 30.11 in NE 11.0 mph 15.0 mph 17% 0.00 in meteobridge W/m2
10:32 72.7 °F 25.3 °F 30.11 in NNE 4.0 mph 11.0 mph 17% 0.00 in meteobridge W/m2
10:38 72.7 °F 25.3 °F 30.11 in NE 2.9 mph 14.0 mph 17% 0.00 in meteobridge W/m2
10:42 72.9 °F 25.5 °F 30.11 in ENE 4.0 mph 7.0 mph 17% 0.00 in meteobridge W/m2
10:48 73.9 °F 26.4 °F 30.11 in NNE 6.0 mph 14.0 mph 17% 0.00 in meteobridge W/m2
10:54 73.8 °F 26.2 °F 30.11 in North 6.0 mph 18.0 mph 17% 0.00 in meteobridge W/m2
11:00 74.1 °F 26.6 °F 30.11 in NNE 6.0 mph 12.0 mph 17% 0.00 in meteobridge W/m2
11:07 75.2 °F 25.9 °F 30.11 in NW 0.9 mph 5.0 mph 16% 0.00 in meteobridge W/m2
11:13 75.7 °F 26.4 °F 30.11 in SW 4.0 mph 5.0 mph 16% 0.00 in meteobridge W/m2
11:19 75.6 °F 27.7 °F 30.12 in East 12.1 mph 12.1 mph 17% 0.00 in meteobridge W/m2
11:25 75.9 °F 26.4 °F 30.11 in Calm   4.0 mph 16% 0.00 in meteobridge W/m2
11:31 75.9 °F 28.0 °F 30.11 in South 4.9 mph 9.0 mph 17% 0.00 in meteobridge W/m2
11:37 76.6 °F 28.6 °F 30.11 in NNE 6.0 mph 6.0 mph 17% 0.00 in meteobridge W/m2
11:43 77.2 °F 28.9 °F 30.11 in NNW 2.9 mph 15.0 mph 17% 0.00 in meteobridge W/m2
11:50 76.8 °F 28.8 °F 30.11 in WNW 8.9 mph 16.0 mph 17% 0.00 in meteobridge W/m2
11:58 76.6 °F 28.6 °F 30.10 in NW 12.1 mph 12.1 mph 17% 0.00 in meteobridge W/m2
12:00 77.2 °F 28.9 °F 30.10 in NNE 6.9 mph 14.0 mph 17% 0.00 in meteobridge W/m2
12:06 77.4 °F 29.1 °F 30.10 in North 12.1 mph 16.0 mph 17% 0.00 in meteobridge W/m2
12:12 77.4 °F 29.1 °F 30.10 in NNW 8.1 mph 17.0 mph 17% 0.00 in meteobridge W/m2
12:18 77.7 °F 29.5 °F 30.10 in NNE 11.0 mph 12.0 mph 17% 0.00 in meteobridge W/m2
12:24 78.4 °F 30.0 °F 30.10 in SE 2.9 mph 12.0 mph 17% 0.00 in meteobridge W/m2
12:30 79.7 °F 31.1 °F 30.10 in ENE 2.9 mph 9.0 mph 17% 0.00 in meteobridge W/m2
12:36 80.4 °F 31.6 °F 30.10 in South 2.0 mph 6.0 mph 17% 0.00 in meteobridge W/m2
12:40 80.6 °F 31.8 °F 30.10 in SE 2.0 mph 7.0 mph 17% 0.00 in meteobridge W/m2
12:44 80.4 °F 30.2 °F 30.10 in Calm   8.0 mph 16% 0.00 in meteobridge W/m2
12:50 80.1 °F 31.3 °F 30.10 in South 10.1 mph 11.0 mph 17% 0.00 in meteobridge W/m2
12:56 79.7 °F 31.1 °F 30.10 in South 6.9 mph 14.0 mph 17% 0.00 in meteobridge W/m2
13:04 79.9 °F 31.1 °F 30.10 in South 8.9 mph 15.0 mph 17% 0.00 in meteobridge W/m2
13:11 80.2 °F 31.5 °F 30.10 in Calm   9.0 mph 17% 0.00 in meteobridge W/m2
13:17 82.0 °F 32.9 °F 30.09 in Calm   7.0 mph 17% 0.00 in meteobridge W/m2
13:25 82.0 °F 34.3 °F 30.09 in South 12.1 mph 15.0 mph 18% 0.00 in meteobridge W/m2
13:31 80.6 °F 33.3 °F 30.09 in SSW 4.0 mph 10.0 mph 18% 0.00 in meteobridge W/m2
13:37 80.8 °F 34.7 °F 30.09 in SSE 4.9 mph 12.0 mph 19% 0.00 in meteobridge W/m2
13:43 81.7 °F 34.0 °F 30.09 in SSW 4.9 mph 14.0 mph 18% 0.00 in meteobridge W/m2
13:49 80.6 °F 33.3 °F 30.09 in North 11.0 mph 11.0 mph 18% 0.00 in meteobridge W/m2
13:56 81.3 °F 35.1 °F 30.09 in South 16.1 mph 16.1 mph 19% 0.00 in meteobridge W/m2
14:02 81.9 °F 34.2 °F 30.09 in North 2.0 mph 9.0 mph 18% 0.00 in meteobridge W/m2
14:08 82.9 °F 35.1 °F 30.09 in South 11.0 mph 20.0 mph 18% 0.00 in meteobridge W/m2
14:14 82.0 °F 34.3 °F 30.09 in North 4.9 mph 11.0 mph 18% 0.00 in meteobridge W/m2
14:20 82.6 °F 34.7 °F 30.09 in NE 4.0 mph 7.0 mph 18% 0.00 in meteobridge W/m2
14:26 82.0 °F 34.3 °F 30.08 in North 0.9 mph 11.0 mph 18% 0.00 in meteobridge W/m2
14:32 81.9 °F 34.2 °F 30.08 in NNW 0.9 mph 12.0 mph 18% 0.00 in meteobridge W/m2
14:38 82.0 °F 34.3 °F 30.08 in WNW 4.0 mph 6.0 mph 18% 0.00 in meteobridge W/m2
14:45 82.8 °F 34.9 °F 30.08 in SE 4.9 mph 12.0 mph 18% 0.00 in meteobridge W/m2
14:51 83.5 °F 35.6 °F 30.08 in SSW 2.0 mph 6.0 mph 18% 0.00 in meteobridge W/m2
14:57 83.5 °F 35.6 °F 30.07 in WNW 2.0 mph 7.0 mph 18% 0.00 in meteobridge W/m2
15:03 83.7 °F 35.6 °F 30.07 in North 2.9 mph 14.0 mph 18% 0.00 in meteobridge W/m2
15:07 83.5 °F 35.6 °F 30.07 in NNW 13.0 mph 23.0 mph 18% 0.00 in meteobridge W/m2
15:13 83.7 °F 35.6 °F 30.07 in SSW 8.9 mph 11.0 mph 18% 0.00 in meteobridge W/m2
15:19 83.1 °F 35.2 °F 30.07 in North 8.9 mph 11.0 mph 18% 0.00 in meteobridge W/m2
15:25 83.8 °F 35.8 °F 30.07 in SSE 11.0 mph 11.0 mph 18% 0.00 in meteobridge W/m2
15:31 82.8 °F 36.3 °F 30.07 in North 11.0 mph 11.0 mph 19% 0.00 in meteobridge W/m2
15:37 82.9 °F 36.5 °F 30.06 in NNW 13.0 mph 14.0 mph 19% 0.00 in meteobridge W/m2
15:39 83.1 °F 35.2 °F 30.06 in WNW 8.1 mph 15.0 mph 18% 0.00 in meteobridge W/m2
15:45 83.5 °F 35.6 °F 30.06 in West 17.9 mph 18.0 mph 18% 0.00 in meteobridge W/m2
15:52 82.9 °F 35.1 °F 30.07 in North 0.9 mph 6.0 mph 18% 0.00 in meteobridge W/m2
15:58 83.1 °F 36.7 °F 30.06 in Calm   11.0 mph 19% 0.00 in meteobridge W/m2
16:04 83.1 °F 36.7 °F 30.05 in SSW 2.0 mph 14.0 mph 19% 0.00 in meteobridge W/m2
16:10 82.9 °F 35.1 °F 30.05 in SW 12.1 mph 12.1 mph 18% 0.00 in meteobridge W/m2
16:16 82.6 °F 34.7 °F 30.05 in NE 2.0 mph 12.0 mph 18% 0.00 in meteobridge W/m2
16:24 82.9 °F 35.1 °F 30.05 in NW 6.9 mph 18.0 mph 18% 0.00 in meteobridge W/m2
16:30 83.5 °F 35.6 °F 30.05 in North 4.0 mph 6.0 mph 18% 0.00 in meteobridge W/m2
16:36 84.4 °F 36.3 °F 30.05 in SE 17.0 mph 17.0 mph 18% 0.00 in meteobridge W/m2
16:43 82.6 °F 36.1 °F 30.05 in NNE 10.1 mph 13.0 mph 19% 0.00 in meteobridge W/m2
16:49 82.8 °F 36.3 °F 30.05 in North 6.9 mph 13.0 mph 19% 0.00 in meteobridge W/m2
16:55 82.4 °F 36.0 °F 30.05 in NW 4.9 mph 9.0 mph 19% 0.00 in meteobridge W/m2
17:01 82.9 °F 36.5 °F 30.05 in SSW 4.9 mph 6.0 mph 19% 0.00 in meteobridge W/m2
17:07 82.4 °F 36.0 °F 30.05 in SW 2.9 mph 7.0 mph 19% 0.00 in meteobridge W/m2
17:13 82.8 °F 36.3 °F 30.05 in East 2.9 mph 11.0 mph 19% 0.00 in meteobridge W/m2
17:17 83.1 °F 36.7 °F 30.05 in SSW 4.9 mph 12.0 mph 19% 0.00 in meteobridge W/m2
17:24 82.8 °F 34.9 °F 30.06 in SSE 4.0 mph 14.0 mph 18% 0.00 in meteobridge W/m2
17:30 82.2 °F 35.8 °F 30.06 in SE 0.9 mph 11.0 mph 19% 0.00 in meteobridge W/m2
17:36 82.0 °F 35.8 °F 30.05 in SSW 4.0 mph 5.0 mph 19% 0.00 in meteobridge W/m2
17:42 81.3 °F 35.1 °F 30.05 in South 6.0 mph 21.0 mph 19% 0.00 in meteobridge W/m2
17:48 81.3 °F 35.1 °F 30.05 in South 8.9 mph 19.0 mph 19% 0.00 in meteobridge W/m2
17:54 81.3 °F 35.1 °F 30.05 in SSE 15.0 mph 16.0 mph 19% 0.00 in meteobridge W/m2
18:00 81.3 °F 35.1 °F 30.05 in East 2.9 mph 14.0 mph 19% 0.00 in meteobridge W/m2
18:02 81.3 °F 35.1 °F 30.05 in SSE 6.0 mph 7.0 mph 19% 0.00 in meteobridge W/m2
18:08 81.1 °F 35.1 °F 30.05 in SSE 17.0 mph 18.0 mph 19% 0.00 in meteobridge W/m2
18:10 80.8 °F 34.7 °F 30.06 in SSW 11.0 mph 19.0 mph 19% 0.00 in meteobridge W/m2
18:17 80.4 °F 34.3 °F 30.06 in SSE 14.1 mph 16.0 mph 19% 0.00 in meteobridge W/m2
18:23 80.1 °F 34.2 °F 30.06 in SSW 0.9 mph 11.0 mph 19% 0.00 in meteobridge W/m2
18:29 80.1 °F 34.2 °F 30.06 in South 6.0 mph 9.0 mph 19% 0.00 in meteobridge W/m2
18:37 79.5 °F 33.6 °F 30.06 in South 8.9 mph 13.0 mph 19% 0.00 in meteobridge W/m2
18:43 79.2 °F 33.4 °F 30.06 in ESE 12.1 mph 12.1 mph 19% 0.00 in meteobridge W/m2
18:49 79.3 °F 33.4 °F 30.07 in SE 4.9 mph 16.0 mph 19% 0.00 in meteobridge W/m2
18:55 78.8 °F 33.1 °F 30.06 in South 12.1 mph 14.0 mph 19% 0.00 in meteobridge W/m2
19:02 78.4 °F 34.0 °F 30.07 in WSW 8.9 mph 10.0 mph 20% 0.00 in meteobridge W/m2
19:04 78.4 °F 34.0 °F 30.06 in South 11.0 mph 13.0 mph 20% 0.00 in meteobridge W/m2
19:10 78.1 °F 33.8 °F 30.06 in South 6.9 mph 10.0 mph 20% 0.00 in meteobridge W/m2
19:16 77.7 °F 33.4 °F 30.06 in South 4.0 mph 7.0 mph 20% 0.00 in meteobridge W/m2
19:22 77.4 °F 33.1 °F 30.07 in SSW 2.0 mph 13.0 mph 20% 0.00 in meteobridge W/m2
19:28 76.8 °F 32.7 °F 30.08 in South 4.0 mph 11.0 mph 20% 0.00 in meteobridge W/m2
19:34 76.8 °F 32.7 °F 30.08 in South 4.0 mph 4.0 mph 20% 0.00 in meteobridge W/m2
19:37 76.8 °F 32.7 °F 30.08 in South 4.0 mph 4.0 mph 20% 0.00 in meteobridge W/m2
19:43 76.8 °F 32.7 °F 30.08 in South 4.0 mph -999.0 mph 20% 0.00 in meteobridge W/m2
19:45 76.8 °F 32.7 °F 30.08 in South 4.0 mph -999.0 mph 20% 0.00 in meteobridge W/m2
19:49 76.8 °F 32.7 °F 30.08 in North -999.9 mph -999.0 mph 20% 0.00 in meteobridge W/m2
Regenstein, Windhoek, Namibia
Compliments of Weather Underground - 2.5 mb